createdAt,value
2019-04-07T00:00:09.032Z,3.70
2019-04-07T00:02:37.518Z,3.70
2019-04-07T00:05:13.066Z,3.70
2019-04-07T00:07:39.065Z,3.60
2019-04-07T00:10:09.835Z,3.60
2019-04-07T00:12:38.383Z,3.50
2019-04-07T00:15:06.999Z,3.50
2019-04-07T00:17:36.150Z,3.40
2019-04-07T00:20:07.338Z,3.30
2019-04-07T00:22:35.814Z,3.30
2019-04-07T00:25:05.201Z,3.30
2019-04-07T00:27:33.731Z,3.30
2019-04-07T00:30:02.177Z,3.20
2019-04-07T00:32:30.677Z,3.20
2019-04-07T00:34:59.071Z,3.20
2019-04-07T00:37:27.549Z,3.20
2019-04-07T00:39:56.641Z,3.10
2019-04-07T00:42:25.126Z,3.10
2019-04-07T00:44:53.525Z,3.10
2019-04-07T00:47:21.941Z,3.10
2019-04-07T00:49:51.192Z,3.00
2019-04-07T00:52:21.499Z,3.00
2019-04-07T00:54:51.318Z,3.00
2019-04-07T00:57:20.828Z,2.90
2019-04-07T00:59:49.491Z,2.90
2019-04-07T01:02:18.469Z,2.90
2019-04-07T01:04:47.259Z,2.90
2019-04-07T01:07:15.726Z,2.80
2019-04-07T01:09:44.175Z,2.90
2019-04-07T01:12:12.827Z,2.80
2019-04-07T01:14:41.747Z,2.80
2019-04-07T01:17:10.197Z,2.80
2019-04-07T01:19:38.765Z,2.70
2019-04-07T01:22:07.167Z,2.70
2019-04-07T01:24:36.383Z,2.70
2019-04-07T01:27:05.091Z,2.60
2019-04-07T01:29:34.061Z,2.70
2019-04-07T01:32:02.674Z,2.70
2019-04-07T01:34:31.543Z,2.70
2019-04-07T01:37:00.067Z,2.70
2019-04-07T01:39:28.464Z,2.70
2019-04-07T01:41:58.501Z,2.70
2019-04-07T01:44:28.536Z,2.70
2019-04-07T01:47:16.778Z,2.60
2019-04-07T01:49:49.329Z,2.60
2019-04-07T01:52:19.614Z,2.60
2019-04-07T01:55:04.953Z,2.60
2019-04-07T01:57:51.871Z,2.60
2019-04-07T02:00:25.173Z,2.50
2019-04-07T02:03:02.194Z,2.50
2019-04-07T02:05:35.325Z,2.60
2019-04-07T02:08:28.116Z,2.60
2019-04-07T02:11:05.015Z,2.70
2019-04-07T02:13:47.215Z,2.80
2019-04-07T02:16:23.514Z,2.80
2019-04-07T02:18:54.231Z,2.80
2019-04-07T02:21:30.723Z,2.80
2019-04-07T02:24:09.378Z,2.80
2019-04-07T02:26:39.446Z,2.80
2019-04-07T02:29:18.098Z,2.80
2019-04-07T02:31:48.140Z,2.80
2019-04-07T02:34:30.004Z,2.80
2019-04-07T02:37:17.386Z,2.70
2019-04-07T02:39:53.224Z,2.70
2019-04-07T02:42:29.008Z,2.70
2019-04-07T02:45:11.071Z,2.70
2019-04-07T02:47:53.261Z,2.60
2019-04-07T02:50:26.634Z,2.50
2019-04-07T02:53:07.654Z,2.50
2019-04-07T02:55:40.822Z,2.50
2019-04-07T02:58:10.858Z,2.50
2019-04-07T03:00:50.650Z,2.40
2019-04-07T03:03:37.320Z,2.40
2019-04-07T03:06:26.200Z,2.30
2019-04-07T03:09:00.128Z,2.30
2019-04-07T03:11:39.285Z,2.30
2019-04-07T03:14:09.910Z,2.20
2019-04-07T03:16:40.598Z,2.20
2019-04-07T03:19:23.526Z,2.20
2019-04-07T03:22:02.902Z,2.20
2019-04-07T03:24:39.066Z,2.20
2019-04-07T03:27:10.037Z,2.20
2019-04-07T03:29:42.605Z,2.20
2019-04-07T03:32:18.866Z,2.10
2019-04-07T03:35:05.347Z,2.10
2019-04-07T03:37:51.511Z,2.00
2019-04-07T03:40:30.586Z,2.00
2019-04-07T03:43:01.486Z,2.00
2019-04-07T03:45:38.045Z,1.90
2019-04-07T03:48:21.166Z,1.90
2019-04-07T03:50:57.271Z,1.90
2019-04-07T03:53:45.716Z,2.00
2019-04-07T03:56:22.050Z,2.00
2019-04-07T03:59:00.863Z,2.00
2019-04-07T04:01:33.981Z,2.00
2019-04-07T04:04:24.312Z,2.00
2019-04-07T04:07:17.777Z,2.00
2019-04-07T04:09:42.811Z,2.00
2019-04-07T04:12:22.697Z,2.00
2019-04-07T04:15:00.215Z,1.90
2019-04-07T04:17:28.949Z,1.90
2019-04-07T04:19:57.499Z,1.90
2019-04-07T04:22:26.071Z,1.90
2019-04-07T04:24:55.461Z,1.90
2019-04-07T04:27:24.095Z,1.90
2019-04-07T04:29:53.456Z,1.90
2019-04-07T04:32:23.158Z,1.90
2019-04-07T04:34:51.577Z,2.00
2019-04-07T04:37:34.398Z,2.00
2019-04-07T04:39:50.971Z,2.00
2019-04-07T04:42:20.436Z,2.10
2019-04-07T04:44:49.129Z,2.10
2019-04-07T04:47:17.606Z,2.20
2019-04-07T04:49:46.045Z,2.30
2019-04-07T04:52:14.531Z,2.40
2019-04-07T04:54:42.914Z,2.50
2019-04-07T04:57:11.335Z,2.70
2019-04-07T04:59:40.265Z,2.80
2019-04-07T05:02:09.044Z,2.90
2019-04-07T05:04:37.559Z,3.00
2019-04-07T05:07:05.970Z,3.10
2019-04-07T05:09:45.572Z,3.30
2019-04-07T05:12:05.827Z,3.40
2019-04-07T05:14:34.559Z,3.50
2019-04-07T05:17:02.954Z,3.60
2019-04-07T05:19:31.361Z,3.70
2019-04-07T05:21:59.878Z,3.80
2019-04-07T05:24:28.449Z,3.90
2019-04-07T05:26:57.324Z,4.00
2019-04-07T05:29:25.866Z,4.10
2019-04-07T05:31:54.410Z,4.20
2019-04-07T05:34:23.075Z,4.30
2019-04-07T05:36:52.223Z,4.40
2019-04-07T05:39:20.767Z,4.40
2019-04-07T05:41:49.238Z,4.50
2019-04-07T05:44:17.866Z,4.60
2019-04-07T05:46:49.400Z,4.60
2019-04-07T05:49:17.703Z,4.70
2019-04-07T05:51:47.124Z,4.80
2019-04-07T05:54:18.072Z,4.90
2019-04-07T05:56:45.960Z,5.00
2019-04-07T05:59:14.723Z,5.00
2019-04-07T06:01:44.546Z,5.20
2019-04-07T06:04:16.869Z,5.30
2019-04-07T06:06:43.171Z,5.30
2019-04-07T06:09:11.577Z,5.40
2019-04-07T06:11:40.142Z,5.50
2019-04-07T06:14:08.559Z,5.60
2019-04-07T06:16:37.710Z,5.80
2019-04-07T06:19:08.067Z,6.00
2019-04-07T06:21:36.636Z,6.20
2019-04-07T06:24:05.205Z,6.40
2019-04-07T06:26:34.170Z,6.60
2019-04-07T06:29:02.706Z,6.90
2019-04-07T06:31:32.189Z,7.00
2019-04-07T06:34:01.290Z,7.20
2019-04-07T06:36:29.712Z,7.40
2019-04-07T06:38:58.205Z,7.60
2019-04-07T06:41:29.487Z,7.80
2019-04-07T06:44:08.961Z,7.90
2019-04-07T06:46:28.934Z,8.10
2019-04-07T06:49:02.703Z,8.20
2019-04-07T06:51:35.830Z,8.40
2019-04-07T06:54:23.197Z,8.50
2019-04-07T06:57:05.259Z,8.60
2019-04-07T06:59:33.987Z,8.80
2019-04-07T07:02:20.824Z,8.80
2019-04-07T07:04:53.968Z,8.90
2019-04-07T07:07:41.411Z,8.80
2019-04-07T07:10:30.147Z,8.80
2019-04-07T07:13:15.591Z,8.80
2019-04-07T07:15:45.123Z,8.80
2019-04-07T07:18:15.509Z,8.90
2019-04-07T07:20:46.166Z,8.90
2019-04-07T07:23:16.954Z,9.00
2019-04-07T07:25:45.503Z,9.00
2019-04-07T07:28:14.391Z,9.10
2019-04-07T07:30:42.821Z,9.10
2019-04-07T07:33:11.266Z,9.10
2019-04-07T07:35:39.836Z,9.20
2019-04-07T07:38:09.212Z,9.30
2019-04-07T07:40:38.523Z,9.50
2019-04-07T07:43:06.992Z,9.70
2019-04-07T07:45:36.197Z,9.90
2019-04-07T07:48:05.362Z,10.00
2019-04-07T07:50:36.782Z,10.20
2019-04-07T07:53:04.674Z,10.40
2019-04-07T07:55:36.501Z,10.50
2019-04-07T07:58:04.063Z,10.70
2019-04-07T08:00:37.160Z,10.90
2019-04-07T08:03:02.643Z,11.10
2019-04-07T08:05:33.336Z,11.20
2019-04-07T08:10:50.735Z,11.40
2019-04-07T08:13:20.076Z,11.50
2019-04-07T08:15:49.334Z,11.60
2019-04-07T08:18:19.833Z,11.70
2019-04-07T08:20:48.986Z,11.80
2019-04-07T08:23:17.519Z,11.80
2019-04-07T08:25:46.102Z,11.90
2019-04-07T08:28:14.729Z,12.00
2019-04-07T08:30:46.629Z,12.10
2019-04-07T08:33:13.595Z,12.10
2019-04-07T08:35:42.645Z,12.10
2019-04-07T08:38:12.147Z,12.10
2019-04-07T08:40:40.817Z,12.10
2019-04-07T08:43:09.218Z,12.00
2019-04-07T08:45:38.144Z,12.00
2019-04-07T08:48:07.322Z,12.00
2019-04-07T08:50:36.330Z,12.10
2019-04-07T08:53:04.786Z,12.20
2019-04-07T08:55:33.566Z,12.20
2019-04-07T08:58:04.296Z,12.30
2019-04-07T09:00:34.091Z,12.40
2019-04-07T09:03:07.814Z,12.50
2019-04-07T09:05:33.429Z,12.50
2019-04-07T09:08:05.534Z,12.60
2019-04-07T09:10:37.214Z,12.70
2019-04-07T09:13:08.347Z,12.70
2019-04-07T09:15:43.606Z,12.80
2019-04-07T09:18:21.224Z,12.80
2019-04-07T09:21:07.835Z,12.80
2019-04-07T09:23:40.508Z,12.80
2019-04-07T09:26:21.140Z,13.00
2019-04-07T09:28:55.805Z,13.00
2019-04-07T09:31:26.034Z,13.00
2019-04-07T09:33:59.851Z,13.00
2019-04-07T09:36:32.322Z,12.90
2019-04-07T09:39:03.837Z,12.80
2019-04-07T09:41:33.879Z,12.80
2019-04-07T09:44:20.923Z,12.80
2019-04-07T09:46:57.481Z,12.80
2019-04-07T09:49:48.136Z,12.90
2019-04-07T09:52:22.114Z,13.00
2019-04-07T09:54:58.628Z,13.10
2019-04-07T09:57:41.189Z,13.30
2019-04-07T10:00:16.015Z,13.40
2019-04-07T10:02:55.012Z,13.70
2019-04-07T10:05:41.382Z,13.90
2019-04-07T10:08:31.578Z,14.20
2019-04-07T10:11:17.772Z,14.50
2019-04-07T10:14:01.189Z,14.80
2019-04-07T10:16:49.528Z,15.00
2019-04-07T10:19:28.359Z,15.30
2019-04-07T10:22:04.240Z,15.60
2019-04-07T10:24:34.630Z,15.70
2019-04-07T10:27:21.367Z,15.90
2019-04-07T10:29:52.459Z,16.10
2019-04-07T10:32:35.122Z,16.40
2019-04-07T10:35:08.344Z,16.50
2019-04-07T10:37:50.230Z,16.70
2019-04-07T10:40:34.683Z,16.90
2019-04-07T10:43:07.524Z,17.10
2019-04-07T10:45:38.279Z,17.20
2019-04-07T10:48:25.807Z,17.30
2019-04-07T10:50:59.119Z,17.40
2019-04-07T10:53:45.834Z,17.30
2019-04-07T10:56:18.766Z,17.20
2019-04-07T10:59:01.847Z,17.10
2019-04-07T11:01:37.918Z,17.00
2019-04-07T11:04:25.569Z,16.70
2019-04-07T11:07:01.961Z,16.50
2019-04-07T11:09:35.415Z,16.20
2019-04-07T11:12:15.452Z,16.10
2019-04-07T11:14:45.661Z,15.90
2019-04-07T11:17:25.390Z,15.70
2019-04-07T11:19:55.523Z,15.60
2019-04-07T11:22:41.928Z,15.50
2019-04-07T11:25:12.973Z,15.40
2019-04-07T11:27:46.787Z,15.20
2019-04-07T11:30:18.064Z,15.10
2019-04-07T11:32:57.593Z,15.00
2019-04-07T11:35:29.869Z,15.00
2019-04-07T11:38:02.706Z,15.00
2019-04-07T11:40:50.146Z,15.10
2019-04-07T11:43:32.973Z,15.20
2019-04-07T11:46:03.481Z,15.30
2019-04-07T11:48:50.416Z,15.50
2019-04-07T11:51:32.571Z,15.70
2019-04-07T11:54:20.718Z,15.80
2019-04-07T11:57:05.542Z,15.90
2019-04-07T11:59:41.467Z,16.10
2019-04-07T12:02:12.548Z,16.30
2019-04-07T12:04:45.711Z,16.50
2019-04-07T12:07:25.144Z,16.70
2019-04-07T12:10:01.353Z,17.00
2019-04-07T12:12:43.823Z,17.30
2019-04-07T12:15:26.943Z,17.60
2019-04-07T12:18:18.531Z,17.70
2019-04-07T12:20:46.177Z,17.90
2019-04-07T12:23:21.784Z,18.00
2019-04-07T12:25:57.651Z,18.30
2019-04-07T12:28:37.569Z,18.70
2019-04-07T12:31:08.538Z,19.00
2019-04-07T12:33:47.426Z,19.20
2019-04-07T12:36:31.800Z,19.30
2019-04-07T12:39:20.202Z,19.30
2019-04-07T12:41:59.463Z,19.30
2019-04-07T12:44:30.042Z,19.20
2019-04-07T12:47:17.082Z,19.20
2019-04-07T12:49:50.156Z,19.30
2019-04-07T12:52:36.664Z,19.40
2019-04-07T12:55:15.381Z,19.60
2019-04-07T12:57:48.582Z,19.70
2019-04-07T13:00:52.298Z,19.70
2019-04-07T13:03:23.012Z,19.90
2019-04-07T13:05:53.066Z,20.00
2019-04-07T13:08:32.300Z,20.10
2019-04-07T13:11:25.428Z,20.10
2019-04-07T13:14:05.285Z,20.00
2019-04-07T13:16:42.741Z,19.90
2019-04-07T13:19:15.648Z,19.80
2019-04-07T13:21:46.848Z,19.70
2019-04-07T13:24:34.102Z,19.60
2019-04-07T13:27:14.152Z,19.30
2019-04-07T13:29:49.971Z,19.10
2019-04-07T13:32:20.693Z,18.80
2019-04-07T13:35:06.070Z,18.60
2019-04-07T13:37:41.276Z,18.40
2019-04-07T13:40:13.096Z,18.30
2019-04-07T13:42:43.034Z,18.10
2019-04-07T13:45:30.150Z,18.00
2019-04-07T13:48:00.351Z,17.90
2019-04-07T13:50:33.287Z,17.70
2019-04-07T13:53:20.702Z,17.70
2019-04-07T13:56:25.482Z,17.70
2019-04-07T13:59:04.006Z,17.70
2019-04-07T14:01:35.782Z,17.60
2019-04-07T14:04:05.795Z,17.50
2019-04-07T14:06:36.221Z,17.50
2019-04-07T14:09:09.317Z,17.40
2019-04-07T14:11:52.511Z,17.30
2019-04-07T14:14:12.317Z,17.30
2019-04-07T14:16:42.355Z,17.20
2019-04-07T14:19:18.868Z,17.20
2019-04-07T14:22:00.981Z,17.10
2019-04-07T14:24:37.212Z,17.00
2019-04-07T14:27:10.019Z,17.00
2019-04-07T14:29:40.578Z,16.90
2019-04-07T14:32:27.399Z,16.80
2019-04-07T14:34:57.690Z,16.80
2019-04-07T14:37:30.765Z,16.60
2019-04-07T14:40:17.141Z,16.60
2019-04-07T14:42:53.359Z,16.50
2019-04-07T14:45:32.701Z,16.40
2019-04-07T14:48:08.732Z,16.30
2019-04-07T14:50:55.967Z,16.30
2019-04-07T14:53:30.265Z,16.20
2019-04-07T14:56:16.496Z,16.20
2019-04-07T14:58:53.859Z,16.20
2019-04-07T15:01:26.531Z,16.20
2019-04-07T15:03:55.686Z,16.10
2019-04-07T15:06:29.212Z,16.10
2019-04-07T15:08:56.431Z,16.10
2019-04-07T15:11:26.987Z,16.10
2019-04-07T15:13:57.810Z,16.10
2019-04-07T15:16:26.354Z,16.00
2019-04-07T15:18:55.114Z,16.00
2019-04-07T15:21:25.353Z,16.00
2019-04-07T15:23:53.875Z,16.00
2019-04-07T15:26:22.285Z,15.90
2019-04-07T15:28:50.678Z,15.90
2019-04-07T15:31:20.477Z,15.90
2019-04-07T15:33:49.777Z,15.90
2019-04-07T15:36:19.573Z,15.90
2019-04-07T15:38:49.474Z,15.90
2019-04-07T15:41:19.520Z,15.90
2019-04-07T15:43:48.834Z,16.00
2019-04-07T15:46:19.178Z,16.00
2019-04-07T15:48:48.429Z,16.10
2019-04-07T15:51:17.546Z,16.10
2019-04-07T15:53:50.357Z,16.20
2019-04-07T15:56:18.352Z,16.20
2019-04-07T15:58:46.390Z,16.30
2019-04-07T16:01:15.025Z,16.30
2019-04-07T16:03:47.783Z,16.30
2019-04-07T16:06:16.166Z,16.30
2019-04-07T16:08:44.639Z,16.30
2019-04-07T16:11:13.131Z,16.30
2019-04-07T16:13:42.276Z,16.20
2019-04-07T16:16:11.328Z,16.20
2019-04-07T16:18:42.945Z,16.10
2019-04-07T16:21:10.987Z,16.10
2019-04-07T16:23:40.495Z,16.00
2019-04-07T16:26:10.704Z,15.90
2019-04-07T16:28:43.255Z,15.90
2019-04-07T16:31:10.119Z,15.80
2019-04-07T16:33:38.831Z,15.70
2019-04-07T16:36:08.625Z,15.70
2019-04-07T16:38:37.193Z,15.60
2019-04-07T16:41:06.467Z,15.50
2019-04-07T16:43:37.650Z,15.50
2019-04-07T16:46:05.601Z,15.40
2019-04-07T16:48:38.658Z,15.40
2019-04-07T16:51:04.318Z,15.30
2019-04-07T16:53:36.482Z,15.30
2019-04-07T16:56:02.844Z,15.30
2019-04-07T16:58:35.393Z,15.20
2019-04-07T17:01:01.405Z,15.20
2019-04-07T17:03:29.790Z,15.10
2019-04-07T17:06:00.227Z,15.10
2019-04-07T17:08:28.775Z,15.00
2019-04-07T17:10:59.446Z,15.00
2019-04-07T17:13:37.078Z,14.90
2019-04-07T17:15:59.292Z,14.90
2019-04-07T17:18:42.928Z,14.80
2019-04-07T17:21:15.655Z,14.80
2019-04-07T17:23:45.490Z,14.70
2019-04-07T17:26:14.635Z,14.60
2019-04-07T17:28:45.185Z,14.60
2019-04-07T17:31:14.182Z,14.50
2019-04-07T17:33:42.860Z,14.50
2019-04-07T17:36:16.219Z,14.50
2019-04-07T17:38:49.862Z,14.40
2019-04-07T17:41:18.557Z,14.30
2019-04-07T17:43:53.455Z,14.30
2019-04-07T17:46:26.212Z,14.20
2019-04-07T17:48:59.786Z,14.00
2019-04-07T17:51:37.911Z,13.70
2019-04-07T17:54:10.476Z,13.50
2019-04-07T17:56:41.654Z,13.20
2019-04-07T17:59:15.275Z,13.00
2019-04-07T18:01:56.765Z,12.40
2019-04-07T18:04:27.252Z,12.80
2019-04-07T18:07:02.086Z,12.70
2019-04-07T18:09:29.818Z,12.60
2019-04-07T18:12:16.239Z,12.50
2019-04-07T18:14:56.991Z,12.50
2019-04-07T18:17:26.383Z,12.40
2019-04-07T18:20:05.257Z,12.40
2019-04-07T18:22:51.673Z,12.40
2019-04-07T18:25:39.677Z,12.40
2019-04-07T18:28:26.204Z,12.40
2019-04-07T18:31:13.223Z,12.40
2019-04-07T18:33:55.691Z,12.40
2019-04-07T18:36:43.925Z,12.40
2019-04-07T18:39:17.373Z,12.40
2019-04-07T18:42:06.651Z,12.40
2019-04-07T18:44:51.036Z,12.40
2019-04-07T18:47:31.471Z,12.40
2019-04-07T18:50:17.082Z,12.40
2019-04-07T18:53:03.700Z,12.40
2019-04-07T18:55:52.524Z,12.30
2019-04-07T18:58:39.768Z,12.20
2019-04-07T19:01:25.423Z,12.20
2019-04-07T19:04:01.302Z,12.20
2019-04-07T19:06:36.500Z,12.20
2019-04-07T19:09:12.181Z,12.10
2019-04-07T19:12:05.834Z,12.10
2019-04-07T19:14:50.230Z,12.00
2019-04-07T19:17:27.124Z,12.00
2019-04-07T19:20:10.873Z,12.00
2019-04-07T19:22:41.043Z,11.90
2019-04-07T19:25:20.348Z,11.90
2019-04-07T19:28:09.318Z,11.90
2019-04-07T19:30:46.151Z,11.90
2019-04-07T19:33:30.651Z,12.00
2019-04-07T19:36:10.303Z,11.90
2019-04-07T19:38:54.328Z,11.90
2019-04-07T19:41:24.482Z,11.90
2019-04-07T19:47:03.070Z,11.80
2019-04-07T19:49:51.303Z,11.80
2019-04-07T19:52:21.625Z,11.80
2019-04-07T19:55:08.095Z,11.70
2019-04-07T19:57:53.269Z,11.80
2019-04-07T20:00:26.341Z,11.80
2019-04-07T20:02:58.269Z,11.80
2019-04-07T20:05:44.328Z,11.70
2019-04-07T20:08:19.077Z,11.80
2019-04-07T20:10:52.343Z,11.80
2019-04-07T20:13:40.909Z,11.80
2019-04-07T20:16:19.941Z,11.80
2019-04-07T20:18:50.024Z,11.80
2019-04-07T20:21:35.057Z,11.80
2019-04-07T20:24:13.186Z,11.80
2019-04-07T20:26:43.355Z,11.80
2019-04-07T20:29:19.473Z,11.80
2019-04-07T20:31:51.583Z,11.80
2019-04-07T20:34:25.233Z,11.80
2019-04-07T20:36:58.119Z,11.80
2019-04-07T20:39:31.933Z,11.70
2019-04-07T20:42:05.953Z,11.80
2019-04-07T20:44:38.750Z,11.70
2019-04-07T20:47:08.787Z,11.70
2019-04-07T20:49:42.472Z,11.60
2019-04-07T20:52:17.904Z,11.60
2019-04-07T20:55:07.126Z,11.60
2019-04-07T20:57:51.338Z,11.60
2019-04-07T21:00:22.950Z,11.50
2019-04-07T21:03:09.974Z,11.50
2019-04-07T21:05:27.060Z,11.40
2019-04-07T21:08:13.002Z,11.40
2019-04-07T21:10:52.263Z,11.30
2019-04-07T21:13:27.943Z,11.30
2019-04-07T21:16:10.232Z,11.30
2019-04-07T21:18:40.471Z,11.30
2019-04-07T21:21:20.086Z,11.20
2019-04-07T21:23:53.299Z,11.20
2019-04-07T21:26:27.510Z,11.20
2019-04-07T21:28:58.863Z,11.20
2019-04-07T21:31:29.034Z,11.10
2019-04-07T21:33:59.219Z,11.10
2019-04-07T21:36:30.052Z,11.10
2019-04-07T21:39:00.390Z,11.00
2019-04-07T21:41:43.887Z,11.00
2019-04-07T21:44:11.705Z,11.00
2019-04-07T21:46:58.020Z,11.00
2019-04-07T21:49:35.945Z,11.00
2019-04-07T21:52:06.495Z,10.90
2019-04-07T21:57:19.366Z,11.00
2019-04-07T22:02:57.088Z,10.90
2019-04-07T22:05:39.443Z,11.00
2019-04-07T22:08:17.439Z,11.00
2019-04-07T22:10:45.447Z,11.00
2019-04-07T22:13:14.192Z,11.00
2019-04-07T22:15:48.276Z,11.00
2019-04-07T22:18:13.139Z,11.00
2019-04-07T22:20:41.583Z,11.00
2019-04-07T22:23:10.152Z,11.00
2019-04-07T22:25:52.571Z,11.00
2019-04-07T22:28:21.164Z,10.90
2019-04-07T22:30:52.069Z,10.90
2019-04-07T22:33:25.167Z,10.90
2019-04-07T22:35:51.300Z,10.90
2019-04-07T22:38:23.104Z,10.90
2019-04-07T22:40:50.094Z,10.90
2019-04-07T22:43:18.948Z,10.90
2019-04-07T22:45:58.990Z,10.90
2019-04-07T22:48:22.810Z,10.90
2019-04-07T22:50:49.599Z,10.90
2019-04-07T22:53:24.150Z,10.90
2019-04-07T22:55:48.656Z,10.90
2019-04-07T22:58:18.126Z,10.90
2019-04-07T23:00:46.922Z,10.90
2019-04-07T23:03:15.601Z,10.90
2019-04-07T23:05:44.122Z,10.90
2019-04-07T23:08:12.578Z,10.90
2019-04-07T23:10:40.994Z,10.80
2019-04-07T23:13:09.396Z,10.80
2019-04-07T23:15:44.366Z,10.70
2019-04-07T23:18:07.995Z,10.70
2019-04-07T23:20:36.489Z,10.70
2019-04-07T23:23:05.670Z,10.70
2019-04-07T23:25:34.356Z,10.60
2019-04-07T23:28:02.851Z,10.60
2019-04-07T23:30:31.478Z,10.60
2019-04-07T23:33:00.041Z,10.50
2019-04-07T23:35:28.782Z,10.50
2019-04-07T23:37:57.489Z,10.40
2019-04-07T23:40:25.967Z,10.30
2019-04-07T23:42:55.116Z,10.30
2019-04-07T23:45:23.723Z,10.20
2019-04-07T23:47:52.552Z,10.20
2019-04-07T23:50:21.157Z,10.30
2019-04-07T23:52:49.793Z,10.30
2019-04-07T23:55:18.268Z,10.30
2019-04-07T23:57:46.670Z,10.40
